Time;durP1;ratioP1;P1;durP2;ratioP2;P2;SDS_P1;SDS_P2;PMS_P1;PMS_P2;Temp;Humidity;BMP_temperature;BMP_pressure;BME280_temperature;BME280_humidity;BME280_pressure;Samples;Min_cycle;Max_cycle;Signal;HPM_P1;HPM_P2
2022/03/04 00:01:30;;;;;;;26.67;8.70;;;;;;;4.62;35.07;98767.69;5055605;28;20043;-74
2022/03/04 00:03:55;;;;;;;24.03;9.20;;;;;;;4.52;35.29;98759.81;5055661;28;20056;-74
2022/03/04 00:06:21;;;;;;;33.57;9.90;;;;;;;4.51;35.23;98768.69;5039213;28;20040;-74
2022/03/04 00:08:47;;;;;;;24.80;9.63;;;;;;;4.52;35.57;98774.78;5040816;28;20143;-74
2022/03/04 00:11:13;;;;;;;34.30;9.97;;;;;;;4.52;35.40;98762.44;5058626;28;20143;-74
2022/03/04 00:13:40;;;;;;;27.70;9.47;;;;;;;4.51;35.46;98767.84;5058417;28;20525;-74
2022/03/04 00:16:07;;;;;;;31.63;8.43;;;;;;;4.51;35.30;98770.47;5057674;28;20048;-75
2022/03/04 00:18:32;;;;;;;34.10;10.10;;;;;;;4.49;35.13;98765.34;5056472;28;20664;-74
2022/03/04 00:20:58;;;;;;;16.27;8.30;;;;;;;4.46;35.21;98759.56;5072945;28;20040;-74
2022/03/04 00:23:24;;;;;;;29.43;10.13;;;;;;;4.46;35.05;98762.19;5056013;28;20524;-74
2022/03/04 00:25:50;;;;;;;26.27;9.40;;;;;;;4.47;35.17;98763.84;5072965;28;20084;-74
2022/03/04 00:28:16;;;;;;;26.90;9.43;;;;;;;4.50;35.01;98768.81;5023914;28;20044;-73
2022/03/04 00:30:41;;;;;;;25.10;8.07;;;;;;;4.50;35.01;98756.50;5041080;28;20040;-74
2022/03/04 00:33:07;;;;;;;19.80;6.90;;;;;;;4.48;34.83;98753.19;5042008;28;20050;-74
2022/03/04 00:35:33;;;;;;;29.70;8.50;;;;;;;4.45;35.14;98761.34;5041627;28;20042;-73
2022/03/04 00:37:59;;;;;;;24.30;6.70;;;;;;;4.42;35.24;98758.19;5041753;28;20146;-73
2022/03/04 00:40:25;;;;;;;26.87;6.53;;;;;;;4.37;35.01;98763.00;5041816;28;20051;-72
2022/03/04 00:42:50;;;;;;;18.47;6.90;;;;;;;4.31;35.33;98760.94;5041642;28;20138;-71
2022/03/04 00:45:16;;;;;;;20.47;6.87;;;;;;;4.28;35.20;98750.72;5025395;28;20043;-72
2022/03/04 00:47:42;;;;;;;19.10;6.73;;;;;;;4.10;35.20;98721.72;5042126;28;20044;-72
2022/03/04 00:50:08;;;;;;;19.87;7.23;;;;;;;4.26;35.24;98752.69;5041291;28;20048;-72
2022/03/04 00:52:34;;;;;;;15.93;6.57;;;;;;;4.27;35.36;98751.69;5057828;28;20039;-72
2022/03/04 00:55:00;;;;;;;12.97;6.53;;;;;;;4.20;35.51;98745.31;5041378;28;20104;-72
2022/03/04 00:57:26;;;;;;;20.20;6.23;;;;;;;4.20;35.26;98742.69;5040885;28;20055;-73
2022/03/04 00:59:52;;;;;;;14.83;6.03;;;;;;;4.22;35.61;98743.41;5057875;28;20067;-72
2022/03/04 01:02:17;;;;;;;15.93;6.00;;;;;;;4.23;35.35;98742.44;5058152;28;20048;-72
2022/03/04 01:04:44;;;;;;;13.30;5.83;;;;;;;4.28;35.61;98734.94;5041970;28;20051;-72
2022/03/04 01:07:09;;;;;;;16.87;6.17;;;;;;;4.16;35.38;98733.44;5058011;28;20044;-73
2022/03/04 01:09:35;;;;;;;13.07;5.67;;;;;;;4.12;35.72;98734.72;5072116;28;20066;-72
2022/03/04 01:12:01;;;;;;;15.97;6.17;;;;;;;4.10;35.65;98732.22;5090765;28;20044;-71
2022/03/04 01:14:27;;;;;;;10.27;5.23;;;;;;;4.06;35.71;98725.56;5055281;28;20040;-72
2022/03/04 01:16:53;;;;;;;11.13;5.40;;;;;;;4.04;35.53;98732.78;5039424;28;20507;-71
2022/03/04 01:19:19;;;;;;;12.80;5.40;;;;;;;4.03;35.77;98735.56;5023432;28;20071;-73
2022/03/04 01:21:44;;;;;;;13.37;5.60;;;;;;;3.99;35.39;98724.47;5039395;28;20523;-72
2022/03/04 01:24:10;;;;;;;13.60;5.70;;;;;;;3.96;35.72;98730.00;5041496;28;20046;-72
2022/03/04 01:26:36;;;;;;;13.50;5.10;;;;;;;4.02;35.84;98729.44;5058199;28;20044;-74
2022/03/04 01:29:03;;;;;;;8.77;4.50;;;;;;;4.07;35.76;98726.41;5025268;28;20138;-74
2022/03/04 01:31:28;;;;;;;10.03;4.80;;;;;;;3.93;35.90;98729.44;5040728;28;20049;-75
2022/03/04 01:33:54;;;;;;;20.70;5.53;;;;;;;3.99;35.88;98739.41;5022801;28;20039;-74
2022/03/04 01:36:20;;;;;;;15.50;5.10;;;;;;;3.77;36.07;98701.13;5038164;28;20077;-73
2022/03/04 01:38:46;;;;;;;9.27;4.93;;;;;;;3.94;36.08;98733.72;5055336;28;20044;-73
2022/03/04 01:41:12;;;;;;;14.93;4.80;;;;;;;3.98;36.04;98737.75;5039485;28;20048;-73
2022/03/04 01:43:38;;;;;;;11.50;5.10;;;;;;;3.84;36.03;98725.03;5071596;28;20040;-73
2022/03/04 01:46:15;;;;;;;13.23;4.80;;;;;;;3.99;36.29;98698.22;5055504;28;20047;-73
2022/03/04 01:48:42;;;;;;;9.83;4.50;;;;;;;3.96;36.63;98718.66;5038613;28;20040;-73
2022/03/04 01:51:09;;;;;;;8.90;4.60;;;;;;;3.97;36.31;98731.66;5073486;28;20162;-73
2022/03/04 01:53:35;;;;;;;14.67;4.53;;;;;;;3.90;36.62;98716.59;5057311;28;20055;-74
2022/03/04 01:56:01;;;;;;;14.23;4.50;;;;;;;3.76;36.73;98717.84;5092639;28;20054;-74
2022/03/04 01:58:27;;;;;;;9.07;4.60;;;;;;;3.71;36.73;98706.06;5091280;28;20126;-73
2022/03/04 02:00:53;;;;;;;10.03;4.40;;;;;;;3.68;36.98;98715.06;5057702;28;20058;-73
2022/03/04 02:03:19;;;;;;;9.20;4.47;;;;;;;3.63;36.92;98719.09;5024137;28;20039;-74
2022/03/04 02:05:45;;;;;;;12.17;4.87;;;;;;;3.64;36.94;98724.19;5057561;28;20036;-73
2022/03/04 02:08:11;;;;;;;14.07;4.63;;;;;;;3.58;36.89;98727.38;5040327;28;20052;-73
2022/03/04 02:10:37;;;;;;;12.47;5.03;;;;;;;3.57;37.34;98738.81;5057225;28;20568;-73
2022/03/04 02:13:03;;;;;;;11.23;4.90;;;;;;;3.49;37.28;98730.78;5023232;28;20039;-72
2022/03/04 02:15:31;;;;;;;14.50;5.00;;;;;;;3.37;37.53;98737.97;5073382;28;20135;-72
2022/03/04 02:17:56;;;;;;;11.83;4.87;;;;;;;3.37;37.78;98743.22;5073235;28;20127;-72
2022/03/04 02:20:22;;;;;;;10.77;5.00;;;;;;;3.38;37.73;98759.81;5023353;28;20380;-72
2022/03/04 02:22:51;;;;;;;12.57;4.70;;;;;;;3.60;37.63;98748.25;5057360;28;20079;-71
2022/03/04 02:25:17;;;;;;;9.57;4.50;;;;;;;3.33;37.84;98741.84;5091608;28;20044;-72
2022/03/04 02:27:43;;;;;;;13.07;4.93;;;;;;;3.28;38.35;98753.69;5039907;28;20496;-72
2022/03/04 02:30:09;;;;;;;10.43;4.60;;;;;;;3.30;37.98;98742.09;5039865;28;20048;-72
2022/03/04 02:32:36;;;;;;;11.60;4.87;;;;;;;3.19;37.95;98736.13;5073258;28;20504;-71
2022/03/04 02:35:03;;;;;;;9.90;4.73;;;;;;;3.32;38.21;98740.16;5056941;28;20042;-71
2022/03/04 02:37:29;;;;;;;10.70;5.07;;;;;;;3.13;38.52;98745.38;5056622;28;20457;-73
2022/03/04 02:39:55;;;;;;;10.13;5.23;;;;;;;3.04;38.24;98735.69;5056666;28;20052;-72
2022/03/04 02:42:22;;;;;;;15.83;5.20;;;;;;;3.00;38.44;98738.66;5073454;28;20518;-73
2022/03/04 02:44:49;;;;;;;16.73;5.43;;;;;;;3.03;38.57;98743.66;5040112;28;20051;-73
2022/03/04 02:47:15;;;;;;;12.97;5.60;;;;;;;3.00;38.54;98747.38;5055756;28;20070;-72
2022/03/04 02:49:41;;;;;;;11.03;5.07;;;;;;;2.97;38.69;98744.19;5055697;28;20407;-71
2022/03/04 02:52:07;;;;;;;13.50;5.23;;;;;;;2.94;38.69;98734.78;5056073;28;20385;-71
2022/03/04 02:54:33;;;;;;;11.63;4.90;;;;;;;3.00;38.93;98744.75;5039455;28;20126;-74
2022/03/04 02:57:00;;;;;;;14.37;5.37;;;;;;;2.97;38.72;98729.28;5023697;28;20052;-74
2022/03/04 02:59:26;;;;;;;12.37;5.17;;;;;;;2.97;38.89;98738.94;5039476;28;20044;-73
2022/03/04 03:01:51;;;;;;;12.47;5.13;;;;;;;2.92;38.82;98741.16;5022654;28;20040;-72
2022/03/04 03:04:19;;;;;;;10.60;4.90;;;;;;;2.89;38.96;98733.53;5055758;28;20043;-72
2022/03/04 03:06:45;;;;;;;18.20;5.60;;;;;;;2.97;39.22;98737.16;5072402;28;20083;-72
2022/03/04 03:09:11;;;;;;;9.60;4.87;;;;;;;2.88;39.05;98737.94;5039003;28;20530;-71
2022/03/04 03:11:38;;;;;;;14.90;5.50;;;;;;;2.87;38.99;98735.47;5072866;28;20059;-72
2022/03/04 03:14:03;;;;;;;18.03;5.97;;;;;;;2.84;39.20;98747.06;5022938;28;20048;-72
2022/03/04 03:16:29;;;;;;;17.83;6.00;;;;;;;2.83;39.56;98748.00;5039599;28;20048;-72
2022/03/04 03:18:55;;;;;;;17.40;5.63;;;;;;;2.79;39.58;98748.38;5039412;28;20389;-73
2022/03/04 03:21:21;;;;;;;17.70;6.30;;;;;;;2.73;39.73;98749.75;5039806;28;20043;-73
2022/03/04 03:23:48;;;;;;;13.63;5.67;;;;;;;2.68;39.90;98738.81;5055836;28;20036;-73
2022/03/04 03:26:13;;;;;;;15.60;5.57;;;;;;;2.62;39.96;98744.59;5059319;28;20040;-71
2022/03/04 03:28:39;;;;;;;14.87;5.87;;;;;;;2.58;40.02;98748.44;5042604;28;20044;-72
2022/03/04 03:31:05;;;;;;;13.17;5.73;;;;;;;2.52;40.32;98753.38;5043072;28;20128;-73
2022/03/04 03:33:31;;;;;;;13.90;6.20;;;;;;;2.42;40.25;98736.75;5040510;28;20105;-72
2022/03/04 03:35:57;;;;;;;19.30;6.13;;;;;;;2.53;40.37;98755.84;5057007;28;20676;-72
2022/03/04 03:38:23;;;;;;;18.83;6.60;;;;;;;2.55;40.53;98753.91;5040322;28;20124;-71
2022/03/04 03:40:49;;;;;;;20.53;6.20;;;;;;;2.50;41.04;98752.66;5040302;28;20076;-72
2022/03/04 03:43:19;;;;;;;17.90;6.67;;;;;;;2.43;41.15;98749.72;5073284;28;20040;-73
2022/03/04 03:45:45;;;;;;;17.73;6.23;;;;;;;2.45;40.87;98753.03;5040485;28;20051;-73
2022/03/04 03:48:11;;;;;;;16.13;6.50;;;;;;;2.45;41.20;98755.66;5057856;28;20040;-73
2022/03/04 03:50:38;;;;;;;20.97;6.57;;;;;;;2.44;41.18;98748.78;5042602;28;20040;-72
2022/03/04 03:53:05;;;;;;;14.80;6.40;;;;;;;2.51;40.97;98754.31;5059008;28;20369;-72
2022/03/04 03:55:31;;;;;;;19.17;7.00;;;;;;;2.39;41.40;98748.31;5025659;28;20131;-72
2022/03/04 03:57:57;;;;;;;23.37;7.13;;;;;;;2.28;41.93;98758.84;5042213;28;20130;-72
2022/03/04 04:00:22;;;;;;;16.07;7.53;;;;;;;2.34;41.76;98760.16;5075216;28;20417;-72
2022/03/04 04:02:49;;;;;;;21.83;7.57;;;;;;;2.32;42.03;98768.13;5025466;28;20108;-72
2022/03/04 04:05:15;;;;;;;19.73;7.80;;;;;;;2.28;42.04;98760.63;5075600;28;20268;-72
2022/03/04 04:07:41;;;;;;;20.13;8.30;;;;;;;2.29;42.43;98765.75;5042865;28;20043;-73
2022/03/04 04:10:08;;;;;;;21.87;7.07;;;;;;;2.31;41.97;98755.13;5075247;28;20504;-72
2022/03/04 04:12:34;;;;;;;15.73;6.93;;;;;;;2.36;42.30;98766.06;5074959;28;20450;-73
2022/03/04 04:15:00;;;;;;;21.77;7.43;;;;;;;2.38;42.22;98762.38;5058510;28;20040;-72
2022/03/04 04:17:27;;;;;;;33.23;7.90;;;;;;;2.32;42.66;98762.88;5058578;28;20040;-73
2022/03/04 04:19:53;;;;;;;24.73;8.13;;;;;;;2.26;42.74;98768.63;5042231;28;20109;-73
2022/03/04 04:22:20;;;;;;;23.03;7.87;;;;;;;2.16;42.79;98740.72;5058469;28;20040;-73
2022/03/04 04:24:48;;;;;;;22.30;8.13;;;;;;;2.44;43.04;98777.59;5075386;28;20040;-72
2022/03/04 04:27:14;;;;;;;20.30;8.57;;;;;;;2.26;43.29;98779.09;5058714;28;20072;-73
2022/03/04 04:29:40;;;;;;;17.63;8.30;;;;;;;2.19;43.38;98777.13;5032885;28;20139;-73
2022/03/04 04:32:06;;;;;;;18.07;7.77;;;;;;;2.27;43.24;98786.03;5030670;28;21033;-73
2022/03/04 04:34:32;;;;;;;22.50;7.57;;;;;;;2.24;43.42;98783.66;5038395;28;20070;-74
2022/03/04 04:36:57;;;;;;;18.77;7.90;;;;;;;2.25;43.51;98785.31;5005403;28;20048;-73
2022/03/04 04:39:23;;;;;;;21.70;7.60;;;;;;;2.28;43.53;98781.59;5021709;28;20055;-73
2022/03/04 04:41:49;;;;;;;21.67;8.13;;;;;;;2.35;43.50;98791.47;5021031;28;20048;-74
2022/03/04 04:44:15;;;;;;;22.50;7.90;;;;;;;2.36;43.20;98782.63;5022131;28;20484;-74
2022/03/04 04:46:41;;;;;;;18.20;8.00;;;;;;;2.42;42.94;98797.84;5038017;28;20083;-67
2022/03/04 04:49:06;;;;;;;25.43;8.27;;;;;;;2.43;43.67;98804.72;5036947;28;20139;-66
2022/03/04 04:51:32;;;;;;;17.17;8.03;;;;;;;2.43;43.20;98793.44;5037237;28;20040;-65
2022/03/04 04:53:58;;;;;;;18.23;7.63;;;;;;;2.29;43.21;98775.41;5071767;28;20051;-65
2022/03/04 04:56:24;;;;;;;26.57;8.87;;;;;;;2.49;43.22;98817.31;5054422;28;20097;-64
2022/03/04 04:58:49;;;;;;;21.00;8.30;;;;;;;2.52;43.28;98821.50;5071191;28;20047;-64
2022/03/04 05:01:15;;;;;;;24.50;7.70;;;;;;;2.53;42.99;98816.13;5054436;28;20420;-66
2022/03/04 05:03:43;;;;;;;18.73;7.63;;;;;;;2.65;43.56;98827.38;5021612;28;20041;-65
2022/03/04 05:06:08;;;;;;;18.47;8.40;;;;;;;2.66;42.75;98829.84;5054364;28;20045;-65
2022/03/04 05:08:34;;;;;;;19.13;8.80;;;;;;;2.55;43.17;98811.56;5020364;28;20043;-66
2022/03/04 05:11:00;;;;;;;20.57;8.57;;;;;;;2.69;43.01;98829.59;5050066;28;20100;-66
2022/03/04 05:13:26;;;;;;;24.30;8.93;;;;;;;2.67;43.08;98831.53;5033171;28;20044;-67
2022/03/04 05:15:52;;;;;;;21.53;9.27;;;;;;;2.66;43.09;98835.09;5049552;28;20080;-66
2022/03/04 05:18:18;;;;;;;24.97;9.80;;;;;;;2.74;43.35;98843.16;5069895;28;20135;-68
2022/03/04 05:20:44;;;;;;;21.90;10.07;;;;;;;2.63;43.48;98843.22;5038354;28;20052;-67
2022/03/04 05:23:10;;;;;;;24.63;10.13;;;;;;;2.65;42.90;98833.44;5032722;28;20190;-67
2022/03/04 05:25:36;;;;;;;21.57;10.97;;;;;;;2.77;43.24;98845.53;5022158;28;20048;-69
2022/03/04 05:28:02;;;;;;;30.50;11.67;;;;;;;2.74;43.14;98855.44;5028452;28;20416;-67
2022/03/04 05:30:28;;;;;;;24.67;12.43;;;;;;;2.71;43.19;98853.06;5050924;28;20086;-68
2022/03/04 05:32:54;;;;;;;25.77;11.60;;;;;;;2.70;43.02;98844.38;5036800;28;20104;-67
2022/03/04 05:35:20;;;;;;;23.67;12.17;;;;;;;2.73;43.27;98843.28;5052265;28;20037;-66
2022/03/04 05:37:45;;;;;;;32.97;13.30;;;;;;;2.80;43.20;98850.50;5020257;28;20048;-67
2022/03/04 05:40:12;;;;;;;27.80;12.50;;;;;;;2.91;43.12;98849.59;5019862;28;20044;-68
2022/03/04 05:42:37;;;;;;;27.00;12.60;;;;;;;2.95;43.05;98857.06;5069764;28;20055;-66
2022/03/04 05:45:04;;;;;;;26.03;11.80;;;;;;;3.07;42.65;98853.44;5035381;28;20417;-67
2022/03/04 05:47:30;;;;;;;21.97;11.80;;;;;;;2.98;42.53;98856.81;5068984;28;20036;-68
2022/03/04 05:49:55;;;;;;;24.93;13.13;;;;;;;3.09;42.48;98863.81;5018590;28;20142;-67
2022/03/04 05:52:21;;;;;;;31.70;12.40;;;;;;;3.10;42.66;98854.97;5035643;28;20504;-67
2022/03/04 05:54:47;;;;;;;26.50;12.60;;;;;;;3.13;42.65;98860.78;5052097;28;20043;-68
2022/03/04 05:57:13;;;;;;;23.60;12.03;;;;;;;3.19;42.61;98868.13;5036338;28;20048;-67
2022/03/04 05:59:39;;;;;;;24.23;11.87;;;;;;;3.22;42.31;98859.16;5035772;28;20044;-66
2022/03/04 06:02:04;;;;;;;28.27;12.37;;;;;;;3.23;42.44;98868.69;5069306;28;20555;-67
2022/03/04 06:04:30;;;;;;;24.03;13.27;;;;;;;3.26;42.50;98876.28;5051819;28;20048;-67
2022/03/04 06:06:56;;;;;;;27.50;13.33;;;;;;;3.31;42.84;98869.72;5035931;28;20041;-67
2022/03/04 06:09:27;;;;;;;28.67;13.10;;;;;;;3.34;42.74;98868.59;5068557;28;20505;-67
2022/03/04 06:11:54;;;;;;;24.80;12.87;;;;;;;3.34;42.97;98885.19;5052752;28;20041;-67
2022/03/04 06:14:20;;;;;;;25.73;13.07;;;;;;;3.40;42.28;98887.28;5052208;28;20040;-67
2022/03/04 06:16:46;;;;;;;25.13;12.67;;;;;;;3.45;42.34;98884.25;5051109;28;20117;-67
2022/03/04 06:19:11;;;;;;;25.43;13.13;;;;;;;3.45;42.35;98879.84;5035741;28;20040;-71
2022/03/04 06:21:38;;;;;;;26.37;13.07;;;;;;;3.33;42.59;98862.53;5018956;28;20468;-70
2022/03/04 06:24:04;;;;;;;27.70;13.33;;;;;;;3.45;42.64;98886.88;5052691;28;20424;-67
2022/03/04 06:26:30;;;;;;;33.47;12.40;;;;;;;3.43;42.47;98873.91;5051873;28;20052;-68
2022/03/04 06:28:56;;;;;;;29.00;13.70;;;;;;;3.45;42.57;98882.47;5052751;28;20503;-68
2022/03/04 06:31:22;;;;;;;27.53;14.90;;;;;;;3.49;42.38;98870.75;5034671;28;20047;-68
2022/03/04 06:33:47;;;;;;;32.73;14.10;;;;;;;3.65;42.28;98893.03;5052013;28;20800;-68
2022/03/04 06:36:16;;;;;;;31.17;15.50;;;;;;;3.64;42.34;98886.97;5035010;28;20045;-68
2022/03/04 06:38:44;;;;;;;26.73;14.80;;;;;;;3.86;42.10;98883.31;5020042;28;20032;-70
2022/03/04 06:41:14;;;;;;;30.23;14.50;;;;;;;3.89;42.06;98883.84;5051886;28;20032;-67
2022/03/04 06:43:40;;;;;;;37.40;18.17;;;;;;;3.91;41.75;98887.19;5035812;28;20072;-67
2022/03/04 06:46:06;;;;;;;25.80;14.27;;;;;;;3.92;41.88;98891.47;5068450;28;20044;-69
2022/03/04 06:48:33;;;;;;;29.67;13.53;;;;;;;4.11;41.57;98895.94;5035548;28;20067;-66
2022/03/04 06:50:59;;;;;;;28.80;14.93;;;;;;;4.05;41.26;98871.03;5036071;28;20197;-67
2022/03/04 06:53:25;;;;;;;25.10;12.97;;;;;;;4.05;41.04;98864.94;5035148;28;20075;-66
2022/03/04 06:55:52;;;;;;;31.47;13.37;;;;;;;4.28;41.41;98893.47;5051328;28;20045;-66
2022/03/04 06:58:18;;;;;;;26.57;12.93;;;;;;;4.11;41.25;98896.78;5051286;28;20041;-67
2022/03/04 07:00:44;;;;;;;25.87;13.53;;;;;;;4.16;41.08;98899.00;5018619;28;20067;-66
2022/03/04 07:03:11;;;;;;;26.20;13.93;;;;;;;4.21;41.29;98907.31;5035251;28;20052;-65
2022/03/04 07:05:37;;;;;;;23.27;11.83;;;;;;;4.28;41.32;98897.91;5051546;28;20040;-65
2022/03/04 07:08:06;;;;;;;26.60;13.50;;;;;;;4.24;41.00;98886.84;5051592;28;20389;-66
2022/03/04 07:10:32;;;;;;;21.03;12.57;;;;;;;4.16;41.22;98902.47;5068554;28;20082;-65
2022/03/04 07:12:58;;;;;;;24.33;12.47;;;;;;;4.16;41.15;98905.09;5067858;28;20048;-65
2022/03/04 07:15:23;;;;;;;26.63;13.37;;;;;;;4.13;41.01;98915.88;5034447;28;20121;-65
2022/03/04 07:17:49;;;;;;;26.33;12.90;;;;;;;4.23;40.81;98921.16;5034300;28;20051;-65
2022/03/04 07:20:15;;;;;;;27.43;12.63;;;;;;;4.32;41.06;98918.50;5034502;28;20541;-65
2022/03/04 07:22:43;;;;;;;23.67;12.47;;;;;;;4.30;40.56;98890.72;5034672;28;20139;-65
2022/03/04 07:25:11;;;;;;;23.93;12.40;;;;;;;4.57;40.65;98919.78;5051726;28;20589;-66
2022/03/04 07:27:37;;;;;;;25.47;12.40;;;;;;;4.43;40.56;98918.38;5069031;28;20041;-65
2022/03/04 07:30:09;;;;;;;20.93;12.07;;;;;;;4.58;40.34;98918.81;5052620;28;20055;-67
2022/03/04 07:32:34;;;;;;;21.15;12.13;;;;;;;4.48;40.18;98915.34;5085297;28;20047;-65
2022/03/04 07:35:00;;;;;;;21.37;11.67;;;;;;;4.57;40.26;98915.34;5035036;28;20045;-65
2022/03/04 07:37:26;;;;;;;21.30;11.43;;;;;;;4.61;40.37;98921.19;5051039;28;20091;-65
2022/03/04 07:39:52;;;;;;;26.80;11.70;;;;;;;4.72;40.11;98918.41;5051284;28;20508;-65
2022/03/04 07:42:18;;;;;;;22.47;11.07;;;;;;;4.83;39.91;98921.72;5017890;28;20052;-65
2022/03/04 07:44:44;;;;;;;18.13;11.67;;;;;;;4.93;39.61;98929.63;5034244;28;20041;-65
2022/03/04 07:47:10;;;;;;;22.17;11.67;;;;;;;5.06;39.73;98922.25;5034408;28;20388;-65
2022/03/04 07:49:36;;;;;;;23.47;11.47;;;;;;;5.17;39.66;98916.81;5067935;28;20617;-66
2022/03/04 07:52:02;;;;;;;23.40;11.47;;;;;;;5.29;39.54;98913.06;5035200;28;20040;-65
2022/03/04 07:54:27;;;;;;;20.60;11.70;;;;;;;5.40;39.06;98919.97;5051306;28;20066;-65
2022/03/04 07:56:55;;;;;;;19.90;10.50;;;;;;;5.47;38.78;98916.63;5068431;28;20059;-65
2022/03/04 07:59:21;;;;;;;23.47;11.43;;;;;;;5.52;38.85;98917.00;5030068;28;20068;-66
2022/03/04 08:01:48;;;;;;;20.30;10.33;;;;;;;5.60;38.43;98924.19;5047242;28;20060;-67
2022/03/04 08:04:14;;;;;;;21.93;10.67;;;;;;;5.61;38.04;98918.81;5047894;28;20049;-67
2022/03/04 08:06:39;;;;;;;18.87;10.37;;;;;;;5.73;37.56;98925.53;5049418;28;20132;-66
2022/03/04 08:09:05;;;;;;;22.13;9.77;;;;;;;5.79;37.42;98922.31;5017514;28;20446;-67
2022/03/04 08:11:31;;;;;;;17.13;10.17;;;;;;;5.88;37.42;98916.22;5020384;28;20470;-66
2022/03/04 08:13:57;;;;;;;20.43;10.30;;;;;;;5.88;37.32;98920.63;5021558;28;20040;-66
2022/03/04 08:16:26;;;;;;;20.77;10.37;;;;;;;5.93;37.14;98924.50;5054753;28;20051;-67
2022/03/04 08:18:52;;;;;;;19.47;9.17;;;;;;;5.97;37.06;98931.13;5038136;28;20531;-66
2022/03/04 08:21:18;;;;;;;21.30;9.87;;;;;;;6.15;36.78;98923.28;5020658;28;20138;-67
2022/03/04 08:23:44;;;;;;;16.10;9.03;;;;;;;6.28;36.14;98935.13;5071417;28;20044;-66
2022/03/04 08:26:10;;;;;;;17.07;8.37;;;;;;;6.45;35.73;98921.16;5037956;28;20442;-66
2022/03/04 08:28:36;;;;;;;15.20;9.40;;;;;;;6.70;35.29;98925.66;5020831;28;20044;-68
2022/03/04 08:31:10;;;;;;;15.83;8.77;;;;;;;7.14;34.38;98923.06;5022537;28;20492;-66
2022/03/04 08:33:39;;;;;;;14.67;8.37;;;;;;;7.50;33.85;98911.44;5037711;28;20047;-68
2022/03/04 08:36:05;;;;;;;20.50;8.10;;;;;;;8.01;32.74;98914.81;5037864;28;20054;-66
2022/03/04 08:38:33;;;;;;;19.20;8.40;;;;;;;8.44;31.95;98917.28;5021440;28;20135;-65
2022/03/04 08:40:59;;;;;;;12.37;7.63;;;;;;;8.74;31.40;98917.66;5037263;28;20507;-65
2022/03/04 08:43:25;;;;;;;15.07;8.13;;;;;;;8.75;31.31;98906.91;5054160;28;20048;-66
2022/03/04 08:45:51;;;;;;;23.20;9.50;;;;;;;8.75;31.37;98919.34;5021342;28;20047;-67
2022/03/04 08:48:17;;;;;;;16.20;8.50;;;;;;;8.74;31.31;98915.88;5034156;28;20040;-66
2022/03/04 08:50:43;;;;;;;15.50;7.90;;;;;;;8.83;31.16;98914.88;5020920;28;20056;-66
2022/03/04 08:53:09;;;;;;;13.10;8.10;;;;;;;9.18;30.46;98919.84;5069907;28;20056;-67
2022/03/04 08:55:35;;;;;;;16.07;7.73;;;;;;;8.95;30.86;98918.84;5045539;28;20094;-66
2022/03/04 08:58:01;;;;;;;14.30;7.40;;;;;;;8.88;30.78;98920.50;5045290;28;20035;-66
2022/03/04 09:00:28;;;;;;;20.43;7.80;;;;;;;8.92;30.65;98927.13;5056929;28;20396;-66
2022/03/04 09:02:56;;;;;;;16.93;8.13;;;;;;;8.91;30.63;98917.53;5073645;28;20040;-66
2022/03/04 09:05:22;;;;;;;18.83;8.67;;;;;;;8.59;31.00;98898.97;5040278;28;20040;-66
2022/03/04 09:07:47;;;;;;;15.50;8.37;;;;;;;8.58;31.17;98907.88;5024231;28;20108;-66
2022/03/04 09:10:13;;;;;;;12.73;7.70;;;;;;;8.61;31.57;98918.16;5039682;28;20060;-66
2022/03/04 09:12:42;;;;;;;13.63;7.47;;;;;;;8.65;31.05;98914.19;5023044;28;20043;-66
2022/03/04 09:15:08;;;;;;;15.07;7.17;;;;;;;8.68;30.85;98918.31;5057597;28;20164;-66
2022/03/04 09:17:35;;;;;;;10.50;6.67;;;;;;;8.74;30.95;98926.44;5040679;28;20234;-66
2022/03/04 09:20:01;;;;;;;11.43;6.83;;;;;;;8.84;31.00;98924.47;5073689;28;20040;-67
2022/03/04 09:22:27;;;;;;;12.80;7.00;;;;;;;8.81;30.92;98921.34;5055332;28;20044;-66
2022/03/04 09:24:52;;;;;;;17.83;7.43;;;;;;;8.98;30.93;98921.16;5055654;28;20040;-67
2022/03/04 09:27:18;;;;;;;15.23;7.33;;;;;;;9.08;30.50;98915.72;5040416;28;20036;-67
2022/03/04 09:29:45;;;;;;;19.55;7.25;;;;;;;9.58;29.91;98921.63;5020160;28;20483;-65
2022/03/04 09:32:12;;;;;;;14.60;7.18;;;;;;;11.14;27.96;98921.31;5060896;28;20036;-68
2022/03/04 09:34:38;;;;;;;14.00;6.10;;;;;;;12.86;25.38;98915.31;5029674;28;20082;-69
2022/03/04 09:37:04;;;;;;;13.05;7.00;;;;;;;14.02;23.78;98911.13;5028528;28;20046;-69
2022/03/04 09:39:31;;;;;;;14.35;6.78;;;;;;;15.01;22.89;98905.09;5055829;28;20154;-68
2022/03/04 09:41:58;;;;;;;11.88;6.55;;;;;;;16.40;20.89;98916.28;5039183;28;20094;-69
2022/03/04 09:44:24;;;;;;;14.00;7.28;;;;;;;17.77;19.38;98902.78;5056599;28;20040;-68
2022/03/04 09:46:50;;;;;;;12.00;6.75;;;;;;;18.34;18.44;98896.97;5072762;28;20036;-69
2022/03/04 09:49:17;;;;;;;14.32;6.43;;;;;;;19.32;17.64;98892.13;5029690;28;20165;-69
2022/03/04 09:51:43;;;;;;;16.02;6.15;;;;;;;19.84;17.24;98894.75;5027144;28;20040;-69
2022/03/04 09:54:09;;;;;;;15.13;6.63;;;;;;;21.61;15.29;98886.34;5046771;28;20035;-69
2022/03/04 09:56:35;;;;;;;18.08;6.88;;;;;;;23.56;13.70;98881.66;5029656;28;20119;-69
2022/03/04 09:59:01;;;;;;;14.05;6.30;;;;;;;24.31;12.66;98884.88;5046143;28;20124;-70
2022/03/04 10:01:27;;;;;;;16.30;6.75;;;;;;;24.84;12.12;98881.84;5010892;28;20139;-70
2022/03/04 10:03:55;;;;;;;14.30;6.07;;;;;;;24.58;12.36;98882.81;5045082;28;20471;-70
2022/03/04 10:06:21;;;;;;;10.80;6.70;;;;;;;24.83;11.87;98886.44;5062392;28;20055;-71
2022/03/04 10:08:56;;;;;;;15.70;6.75;;;;;;;24.54;11.71;98889.88;5059914;28;20036;-73
2022/03/04 10:11:28;;;;;;;18.10;6.55;;;;;;;24.41;11.58;98890.34;5010083;28;20052;-72
2022/03/04 10:13:56;;;;;;;18.50;7.05;;;;;;;23.91;12.27;98888.13;5094283;28;20407;-73
2022/03/04 10:16:26;;;;;;;17.70;6.40;;;;;;;23.72;12.52;98867.13;5009914;28;20044;-72
2022/03/04 10:19:10;;;;;;;12.87;6.77;;;;;;;24.03;11.70;98887.97;5040999;28;20044;-71
2022/03/04 10:22:00;;;;;;;17.75;6.65;;;;;;;24.19;11.89;98882.38;5072555;28;20051;-71
2022/03/04 10:24:36;;;;;;;15.38;6.65;;;;;;;23.37;12.33;98873.13;5058551;28;20549;-71
2022/03/04 10:27:10;;;;;;;17.40;6.40;;;;;;;22.60;13.04;98874.50;5032652;28;20048;-71
2022/03/04 10:29:41;;;;;;;14.52;6.00;;;;;;;22.48;12.93;98869.16;5055623;28;20043;-72
2022/03/04 10:32:19;;;;;;;16.52;7.13;;;;;;;21.70;13.41;98879.44;5023013;28;20123;-71
2022/03/04 10:34:47;;;;;;;15.57;6.30;;;;;;;21.43;13.84;98865.78;5041194;28;20032;-70
2022/03/04 10:37:15;;;;;;;19.40;6.20;;;;;;;21.17;14.16;98862.94;5039044;28;20046;-71
2022/03/04 10:40:01;;;;;;;16.17;6.38;;;;;;;21.70;13.50;98858.66;5057628;28;20032;-72
2022/03/04 10:42:39;;;;;;;11.70;5.68;;;;;;;22.34;12.77;98881.44;5076734;28;20403;-70
2022/03/04 10:45:10;;;;;;;13.50;6.05;;;;;;;21.73;13.22;98878.94;5048934;28;20093;-70
2022/03/04 10:47:46;;;;;;;13.60;5.32;;;;;;;21.01;13.76;98877.22;5043342;28;20130;-73
2022/03/04 10:50:19;;;;;;;12.85;5.68;;;;;;;19.80;14.80;98855.03;5050404;28;20101;-74
2022/03/04 10:52:57;;;;;;;11.20;5.57;;;;;;;19.38;15.37;98875.03;5042904;28;20036;-72
2022/03/04 10:55:37;;;;;;;8.05;5.07;;;;;;;18.78;15.96;98838.50;5058880;28;20040;-71
2022/03/04 10:58:07;;;;;;;17.67;4.95;;;;;;;19.42;15.36;98866.25;5037698;28;20155;-71
2022/03/04 11:00:35;;;;;;;10.80;5.40;;;;;;;20.20;14.79;98861.31;5065218;28;20059;-71
2022/03/04 11:03:03;;;;;;;17.80;5.00;;;;;;;21.48;14.16;98865.06;5018520;28;20421;-71
2022/03/04 11:05:29;;;;;;;7.63;4.25;;;;;;;22.02;13.43;98866.94;5050741;28;20491;-72
2022/03/04 11:07:56;;;;;;;9.95;4.70;;;;;;;21.84;13.34;98850.19;5018854;28;20105;-70
2022/03/04 11:10:22;;;;;;;7.60;4.20;;;;;;;21.71;13.45;98873.00;5036535;28;20174;-71
2022/03/04 11:12:53;;;;;;;15.20;4.32;;;;;;;22.29;13.35;98870.56;5051142;28;20052;-71
2022/03/04 11:15:23;;;;;;;10.52;4.18;;;;;;;23.46;12.18;98862.59;5051371;28;20048;-73
2022/03/04 11:17:50;;;;;;;6.97;3.90;;;;;;;25.03;11.21;98869.38;5066036;28;20156;-73
2022/03/04 11:20:17;;;;;;;7.68;3.53;;;;;;;26.25;10.31;98864.41;5049523;28;20439;-74
2022/03/04 11:22:44;;;;;;;9.70;3.20;;;;;;;26.17;10.20;98862.25;5035107;28;20048;-74
2022/03/04 11:25:12;;;;;;;13.60;3.67;;;;;;;24.88;10.69;98847.59;5050897;28;20480;-74
2022/03/04 11:27:42;;;;;;;6.35;3.95;;;;;;;23.25;12.11;98856.19;5086330;28;20723;-73